LNI661 WAPP-WAPF
Flight info
| Callsign | LNI661 |
|---|---|
| Flight time | 0h 52m |
| Altitude | 29000 |
| Route | GOMBY W54 FOLOT DCT NOMUR |
| Aircraft | B738/M-SDE2E3FGHIRWXY/LB1 |
Departure
| Time | 2026-04-25 00:43 |
|---|---|
| Airport | Pattimura International Airport (WAPP) |
Arrival
| Time | 2026-04-25 01:36 |
|---|---|
| Airport | Karel Sadsuitubun Airport (WAPF) |
| Time | Latitude | Longitude | Altitude | Speed | Heading |
|---|---|---|---|---|---|
| 2026-04-25 00:32 | -3.70626 | 128.08855 | 36 ft | 0 kts | 0° |
| 2026-04-25 00:35 | -3.70633 | 128.08855 | 36 ft | 2 kts | 1° |
| 2026-04-25 00:35 | -3.70649 | 128.08853 | 32 ft | 2 kts | 9° |
| 2026-04-25 00:35 | -3.70666 | 128.08850 | 35 ft | 2 kts | 20° |
| 2026-04-25 00:35 | -3.70680 | 128.08842 | 34 ft | 2 kts | 39° |
| 2026-04-25 00:36 | -3.70691 | 128.08830 | 36 ft | 2 kts | 65° |
| 2026-04-25 00:36 | -3.70696 | 128.08814 | 36 ft | 2 kts | 84° |
| 2026-04-25 00:36 | -3.70696 | 128.08807 | 36 ft | 0 kts | 87° |
| 2026-04-25 00:38 | -3.70696 | 128.08817 | 36 ft | 4 kts | 88° |
| 2026-04-25 00:38 | -3.70695 | 128.08863 | 36 ft | 8 kts | 89° |
| 2026-04-25 00:38 | -3.70695 | 128.08918 | 36 ft | 8 kts | 89° |
| 2026-04-25 00:38 | -3.70694 | 128.08986 | 36 ft | 11 kts | 89° |
| 2026-04-25 00:39 | -3.70701 | 128.09067 | 36 ft | 12 kts | 114° |
| 2026-04-25 00:39 | -3.70755 | 128.09126 | 35 ft | 11 kts | 135° |
| 2026-04-25 00:39 | -3.70820 | 128.09159 | 35 ft | 12 kts | 191° |
| 2026-04-25 00:39 | -3.70896 | 128.09097 | 35 ft | 18 kts | 225° |
| 2026-04-25 00:40 | -3.70990 | 128.09002 | 35 ft | 19 kts | 225° |
| 2026-04-25 00:40 | -3.71085 | 128.08908 | 34 ft | 20 kts | 224° |
| 2026-04-25 00:40 | -3.71189 | 128.08806 | 34 ft | 23 kts | 225° |
| 2026-04-25 00:40 | -3.71312 | 128.08684 | 35 ft | 25 kts | 224° |
| 2026-04-25 00:41 | -3.71433 | 128.08564 | 36 ft | 23 kts | 225° |
| 2026-04-25 00:41 | -3.71544 | 128.08453 | 36 ft | 23 kts | 225° |
| 2026-04-25 00:41 | -3.71654 | 128.08343 | 36 ft | 22 kts | 225° |
| 2026-04-25 00:41 | -3.71753 | 128.08239 | 36 ft | 14 kts | 245° |
| 2026-04-25 00:42 | -3.71790 | 128.08158 | 35 ft | 10 kts | 202° |
| 2026-04-25 00:42 | -3.71822 | 128.08167 | 35 ft | 3 kts | 124° |
| 2026-04-25 00:42 | -3.71817 | 128.08181 | 35 ft | 2 kts | 45° |
| 2026-04-25 00:42 | -3.71807 | 128.08191 | 35 ft | 2 kts | 45° |
| 2026-04-25 00:43 | -3.71733 | 128.08265 | 36 ft | 48 kts | 45° |
| 2026-04-25 00:43 | -3.71294 | 128.08701 | 35 ft | 127 kts | 44° |
| 2026-04-25 00:43 | -3.70539 | 128.09458 | 264 ft | 171 kts | 46° |
| 2026-04-25 00:43 | -3.69724 | 128.10317 | 1184 ft | 171 kts | 57° |
| 2026-04-25 00:44 | -3.69412 | 128.11517 | 1730 ft | 196 kts | 95° |
| 2026-04-25 00:44 | -3.69793 | 128.12908 | 2131 ft | 217 kts | 109° |
| 2026-04-25 00:44 | -3.70335 | 128.14392 | 2565 ft | 231 kts | 110° |
| 2026-04-25 00:44 | -3.70934 | 128.15948 | 3005 ft | 253 kts | 110° |
| 2026-04-25 00:45 | -3.71589 | 128.17646 | 3635 ft | 266 kts | 110° |
| 2026-04-25 00:45 | -3.72254 | 128.19388 | 4582 ft | 267 kts | 110° |
| 2026-04-25 00:45 | -3.72910 | 128.21122 | 5455 ft | 271 kts | 110° |
| 2026-04-25 00:45 | -3.73578 | 128.22905 | 6357 ft | 274 kts | 110° |
| 2026-04-25 00:46 | -3.74249 | 128.24708 | 7177 ft | 278 kts | 110° |
| 2026-04-25 00:46 | -3.74920 | 128.26519 | 7970 ft | 282 kts | 110° |
| 2026-04-25 00:46 | -3.76297 | 128.30256 | 9597 ft | 289 kts | 110° |
| 2026-04-25 00:47 | -3.76998 | 128.32163 | 10326 ft | 295 kts | 110° |
| 2026-04-25 00:47 | -3.77726 | 128.34149 | 10556 ft | 319 kts | 110° |
| 2026-04-25 00:47 | -3.78520 | 128.36317 | 10743 ft | 342 kts | 110° |
| 2026-04-25 00:47 | -3.79357 | 128.38602 | 11151 ft | 354 kts | 110° |
| 2026-04-25 00:48 | -3.80210 | 128.40933 | 11837 ft | 356 kts | 110° |
| 2026-04-25 00:48 | -3.81067 | 128.43274 | 12513 ft | 360 kts | 110° |
| 2026-04-25 00:48 | -3.81936 | 128.45652 | 13128 ft | 365 kts | 110° |
| 2026-04-25 00:48 | -3.82804 | 128.48025 | 13760 ft | 368 kts | 110° |
| 2026-04-25 00:49 | -3.83692 | 128.50454 | 14323 ft | 372 kts | 110° |
| 2026-04-25 00:49 | -3.84583 | 128.52891 | 14895 ft | 375 kts | 110° |
| 2026-04-25 00:49 | -3.85485 | 128.55359 | 15447 ft | 379 kts | 110° |
| 2026-04-25 00:49 | -3.86396 | 128.57853 | 15994 ft | 382 kts | 110° |
| 2026-04-25 00:50 | -3.87311 | 128.60357 | 16550 ft | 385 kts | 110° |
| 2026-04-25 00:50 | -3.88234 | 128.62885 | 17097 ft | 388 kts | 110° |
| 2026-04-25 00:50 | -3.89157 | 128.65410 | 17608 ft | 392 kts | 110° |
| 2026-04-25 00:50 | -3.90096 | 128.67982 | 18148 ft | 394 kts | 110° |
| 2026-04-25 00:51 | -3.91046 | 128.70582 | 18577 ft | 398 kts | 110° |
| 2026-04-25 00:51 | -3.92002 | 128.73201 | 19050 ft | 400 kts | 110° |
| 2026-04-25 00:51 | -3.92951 | 128.75800 | 19514 ft | 402 kts | 110° |
| 2026-04-25 00:51 | -3.93914 | 128.78438 | 19974 ft | 404 kts | 110° |
| 2026-04-25 00:52 | -3.94886 | 128.81101 | 20419 ft | 406 kts | 110° |
| 2026-04-25 00:52 | -3.95863 | 128.83776 | 20862 ft | 408 kts | 110° |
| 2026-04-25 00:52 | -3.96830 | 128.86425 | 21284 ft | 411 kts | 110° |
| 2026-04-25 00:52 | -3.97815 | 128.89126 | 21695 ft | 413 kts | 110° |
| 2026-04-25 00:53 | -3.98810 | 128.91854 | 22119 ft | 416 kts | 110° |
| 2026-04-25 00:53 | -3.99798 | 128.94559 | 22503 ft | 418 kts | 110° |
| 2026-04-25 00:53 | -4.00801 | 128.97310 | 22901 ft | 421 kts | 110° |
| 2026-04-25 00:53 | -4.01809 | 129.00075 | 23282 ft | 423 kts | 110° |
| 2026-04-25 00:54 | -4.02824 | 129.02857 | 23641 ft | 425 kts | 110° |
| 2026-04-25 00:54 | -4.03844 | 129.05652 | 23973 ft | 427 kts | 110° |
| 2026-04-25 00:54 | -4.04862 | 129.08445 | 24319 ft | 428 kts | 110° |
| 2026-04-25 00:54 | -4.05871 | 129.11212 | 24648 ft | 429 kts | 110° |
| 2026-04-25 00:55 | -4.06898 | 129.14029 | 24971 ft | 431 kts | 110° |
| 2026-04-25 00:55 | -4.07929 | 129.16859 | 25276 ft | 432 kts | 110° |
| 2026-04-25 00:55 | -4.08965 | 129.19701 | 25595 ft | 433 kts | 110° |
| 2026-04-25 00:55 | -4.10002 | 129.22546 | 25896 ft | 435 kts | 110° |
| 2026-04-25 00:56 | -4.11029 | 129.25366 | 26185 ft | 437 kts | 110° |
| 2026-04-25 00:56 | -4.12072 | 129.28228 | 26475 ft | 438 kts | 110° |
| 2026-04-25 00:56 | -4.13123 | 129.31113 | 26767 ft | 440 kts | 110° |
| 2026-04-25 00:56 | -4.14176 | 129.34005 | 27057 ft | 441 kts | 110° |
| 2026-04-25 00:57 | -4.15234 | 129.36909 | 27335 ft | 443 kts | 110° |
| 2026-04-25 00:57 | -4.16278 | 129.39778 | 27602 ft | 444 kts | 110° |
| 2026-04-25 00:57 | -4.17341 | 129.42697 | 27870 ft | 446 kts | 110° |
| 2026-04-25 00:57 | -4.18409 | 129.45631 | 28140 ft | 447 kts | 110° |
| 2026-04-25 00:58 | -4.19478 | 129.48567 | 28427 ft | 448 kts | 110° |
| 2026-04-25 00:58 | -4.20546 | 129.51502 | 28698 ft | 449 kts | 109° |
| 2026-04-25 00:58 | -4.21617 | 129.54445 | 28998 ft | 449 kts | 109° |
| 2026-04-25 00:59 | -4.23747 | 129.60302 | 28957 ft | 448 kts | 109° |
| 2026-04-25 00:59 | -4.25877 | 129.66158 | 28954 ft | 447 kts | 109° |
| 2026-04-25 01:00 | -4.28024 | 129.72014 | 28950 ft | 448 kts | 111° |
| 2026-04-25 01:00 | -4.30567 | 129.77683 | 28955 ft | 448 kts | 115° |
| 2026-04-25 01:01 | -4.33252 | 129.83338 | 28948 ft | 448 kts | 115° |
| 2026-04-25 01:01 | -4.35906 | 129.88960 | 28948 ft | 449 kts | 115° |
| 2026-04-25 01:02 | -4.38559 | 129.94643 | 28953 ft | 449 kts | 114° |
| 2026-04-25 01:02 | -4.41191 | 130.00308 | 28952 ft | 449 kts | 114° |
| 2026-04-25 01:03 | -4.43827 | 130.05989 | 28960 ft | 449 kts | 114° |
| 2026-04-25 01:03 | -4.46458 | 130.11659 | 28954 ft | 450 kts | 114° |
| 2026-04-25 01:04 | -4.49103 | 130.17359 | 28953 ft | 450 kts | 114° |
| 2026-04-25 01:04 | -4.51726 | 130.23012 | 28958 ft | 450 kts | 114° |
| 2026-04-25 01:05 | -4.54367 | 130.28707 | 28955 ft | 450 kts | 114° |
| 2026-04-25 01:05 | -4.57012 | 130.34411 | 28956 ft | 450 kts | 114° |
| 2026-04-25 01:06 | -4.59641 | 130.40080 | 28956 ft | 450 kts | 114° |
| 2026-04-25 01:06 | -4.62263 | 130.45738 | 28956 ft | 449 kts | 114° |
| 2026-04-25 01:07 | -4.64902 | 130.51433 | 28957 ft | 449 kts | 114° |
| 2026-04-25 01:07 | -4.67525 | 130.57094 | 28953 ft | 449 kts | 114° |
| 2026-04-25 01:08 | -4.70163 | 130.62789 | 28956 ft | 449 kts | 114° |
| 2026-04-25 01:08 | -4.72799 | 130.68482 | 28958 ft | 449 kts | 114° |
| 2026-04-25 01:09 | -4.75432 | 130.74169 | 28953 ft | 449 kts | 114° |
| 2026-04-25 01:09 | -4.78047 | 130.79819 | 28953 ft | 449 kts | 114° |
| 2026-04-25 01:10 | -4.80237 | 130.84552 | 28956 ft | 449 kts | 114° |
| 2026-04-25 01:10 | -4.83299 | 130.91173 | 28955 ft | 449 kts | 114° |
| 2026-04-25 01:11 | -4.85485 | 130.95900 | 28953 ft | 449 kts | 114° |
| 2026-04-25 01:11 | -4.88122 | 131.01601 | 28960 ft | 449 kts | 114° |
| 2026-04-25 01:12 | -4.90736 | 131.07257 | 28957 ft | 449 kts | 114° |
| 2026-04-25 01:12 | -4.93369 | 131.12956 | 28958 ft | 449 kts | 114° |
| 2026-04-25 01:13 | -4.95982 | 131.18611 | 28959 ft | 449 kts | 114° |
| 2026-04-25 01:13 | -4.98603 | 131.24286 | 28953 ft | 449 kts | 114° |
| 2026-04-25 01:14 | -5.01235 | 131.29986 | 28954 ft | 449 kts | 114° |
| 2026-04-25 01:14 | -5.03849 | 131.35649 | 28958 ft | 449 kts | 114° |
| 2026-04-25 01:15 | -5.06460 | 131.41306 | 28947 ft | 441 kts | 114° |
| 2026-04-25 01:15 | -5.09027 | 131.46872 | 28960 ft | 443 kts | 114° |
| 2026-04-25 01:16 | -5.11604 | 131.52460 | 28937 ft | 429 kts | 114° |
| 2026-04-25 01:16 | -5.12833 | 131.55124 | 28926 ft | 413 kts | 114° |
| 2026-04-25 01:16 | -5.14027 | 131.57706 | 28697 ft | 403 kts | 114° |
| 2026-04-25 01:16 | -5.15191 | 131.60217 | 28287 ft | 399 kts | 114° |
| 2026-04-25 01:17 | -5.16373 | 131.62763 | 27271 ft | 408 kts | 114° |
| 2026-04-25 01:17 | -5.17600 | 131.65407 | 26123 ft | 424 kts | 114° |
| 2026-04-25 01:17 | -5.18849 | 131.68100 | 25461 ft | 425 kts | 114° |
| 2026-04-25 01:17 | -5.20089 | 131.70771 | 24982 ft | 420 kts | 114° |
| 2026-04-25 01:18 | -5.21315 | 131.73414 | 24554 ft | 415 kts | 114° |
| 2026-04-25 01:18 | -5.22515 | 131.76000 | 24136 ft | 410 kts | 114° |
| 2026-04-25 01:18 | -5.23716 | 131.78590 | 23733 ft | 407 kts | 114° |
| 2026-04-25 01:18 | -5.24908 | 131.81163 | 23266 ft | 404 kts | 114° |
| 2026-04-25 01:19 | -5.26091 | 131.83716 | 22783 ft | 401 kts | 114° |
| 2026-04-25 01:19 | -5.27260 | 131.86240 | 22309 ft | 398 kts | 114° |
| 2026-04-25 01:19 | -5.28411 | 131.88725 | 21843 ft | 395 kts | 114° |
| 2026-04-25 01:19 | -5.29571 | 131.91229 | 21384 ft | 393 kts | 114° |
| 2026-04-25 01:20 | -5.30724 | 131.93720 | 20922 ft | 391 kts | 114° |
| 2026-04-25 01:20 | -5.31860 | 131.96173 | 20475 ft | 389 kts | 114° |
| 2026-04-25 01:20 | -5.33002 | 131.98640 | 20031 ft | 387 kts | 114° |
| 2026-04-25 01:20 | -5.34137 | 132.01091 | 19603 ft | 386 kts | 114° |
| 2026-04-25 01:21 | -5.35253 | 132.03502 | 19177 ft | 384 kts | 114° |
| 2026-04-25 01:21 | -5.36375 | 132.05926 | 18742 ft | 381 kts | 114° |
| 2026-04-25 01:21 | -5.37495 | 132.08346 | 18272 ft | 379 kts | 114° |
| 2026-04-25 01:21 | -5.38592 | 132.10716 | 17755 ft | 377 kts | 114° |
| 2026-04-25 01:22 | -5.39696 | 132.13104 | 17244 ft | 374 kts | 114° |
| 2026-04-25 01:22 | -5.40780 | 132.15446 | 16738 ft | 372 kts | 114° |
| 2026-04-25 01:22 | -5.41868 | 132.17799 | 16243 ft | 370 kts | 114° |
| 2026-04-25 01:22 | -5.42945 | 132.20128 | 15809 ft | 366 kts | 114° |
| 2026-04-25 01:23 | -5.44022 | 132.22456 | 15291 ft | 366 kts | 114° |
| 2026-04-25 01:23 | -5.45093 | 132.24773 | 14772 ft | 365 kts | 114° |
| 2026-04-25 01:23 | -5.46162 | 132.27086 | 14290 ft | 364 kts | 115° |
| 2026-04-25 01:23 | -5.47227 | 132.29390 | 13832 ft | 363 kts | 115° |
| 2026-04-25 01:24 | -5.48289 | 132.31689 | 13326 ft | 362 kts | 115° |
| 2026-04-25 01:24 | -5.49332 | 132.33945 | 12880 ft | 359 kts | 115° |
| 2026-04-25 01:24 | -5.50378 | 132.36209 | 12450 ft | 356 kts | 115° |
| 2026-04-25 01:24 | -5.51420 | 132.38462 | 12071 ft | 351 kts | 115° |
| 2026-04-25 01:25 | -5.52402 | 132.40610 | 11884 ft | 333 kts | 114° |
| 2026-04-25 01:25 | -5.53335 | 132.42687 | 11575 ft | 320 kts | 114° |
| 2026-04-25 01:25 | -5.54231 | 132.44689 | 11319 ft | 307 kts | 114° |
| 2026-04-25 01:25 | -5.55094 | 132.46618 | 11023 ft | 298 kts | 114° |
| 2026-04-25 01:26 | -5.55923 | 132.48470 | 10717 ft | 289 kts | 114° |
| 2026-04-25 01:26 | -5.56744 | 132.50301 | 10346 ft | 285 kts | 114° |
| 2026-04-25 01:26 | -5.57563 | 132.52126 | 9976 ft | 287 kts | 114° |
| 2026-04-25 01:26 | -5.58381 | 132.53949 | 9742 ft | 284 kts | 114° |
| 2026-04-25 01:27 | -5.59179 | 132.55727 | 9472 ft | 281 kts | 114° |
| 2026-04-25 01:27 | -5.59983 | 132.57518 | 9187 ft | 279 kts | 114° |
| 2026-04-25 01:27 | -5.60788 | 132.59288 | 8902 ft | 277 kts | 118° |
| 2026-04-25 01:28 | -5.63539 | 132.61893 | 8332 ft | 274 kts | 145° |
| 2026-04-25 01:28 | -5.65114 | 132.62972 | 8051 ft | 273 kts | 145° |
| 2026-04-25 01:28 | -5.66690 | 132.64043 | 7779 ft | 272 kts | 145° |
| 2026-04-25 01:28 | -5.68257 | 132.65112 | 7503 ft | 271 kts | 145° |
| 2026-04-25 01:29 | -5.69796 | 132.66167 | 7241 ft | 270 kts | 144° |
| 2026-04-25 01:29 | -5.71346 | 132.67235 | 6990 ft | 269 kts | 144° |
| 2026-04-25 01:29 | -5.72893 | 132.68306 | 6745 ft | 268 kts | 144° |
| 2026-04-25 01:29 | -5.74421 | 132.69366 | 6497 ft | 266 kts | 144° |
| 2026-04-25 01:30 | -5.75924 | 132.70411 | 6211 ft | 265 kts | 144° |
| 2026-04-25 01:30 | -5.77437 | 132.71461 | 5952 ft | 264 kts | 144° |
| 2026-04-25 01:30 | -5.78944 | 132.72510 | 5673 ft | 262 kts | 144° |
| 2026-04-25 01:30 | -5.80441 | 132.73551 | 5416 ft | 260 kts | 143° |
| 2026-04-25 01:31 | -5.81914 | 132.74576 | 5133 ft | 260 kts | 143° |
| 2026-04-25 01:31 | -5.83382 | 132.75598 | 4947 ft | 253 kts | 144° |
| 2026-04-25 01:31 | -5.84837 | 132.76612 | 4524 ft | 254 kts | 144° |
| 2026-04-25 01:31 | -5.86249 | 132.77595 | 4444 ft | 241 kts | 143° |
| 2026-04-25 01:32 | -5.87585 | 132.78519 | 4254 ft | 231 kts | 143° |
| 2026-04-25 01:32 | -5.88685 | 132.79649 | 3945 ft | 222 kts | 114° |
| 2026-04-25 01:32 | -5.89002 | 132.81105 | 3726 ft | 212 kts | 86° |
| 2026-04-25 01:32 | -5.88574 | 132.82515 | 3368 ft | 214 kts | 59° |
| 2026-04-25 01:33 | -5.87585 | 132.83561 | 3304 ft | 200 kts | 35° |
| 2026-04-25 01:33 | -5.86368 | 132.84157 | 3043 ft | 196 kts | 25° |
| 2026-04-25 01:33 | -5.85079 | 132.84570 | 2681 ft | 198 kts | 5° |
| 2026-04-25 01:33 | -5.83762 | 132.84184 | 2405 ft | 198 kts | 326° |
| 2026-04-25 01:34 | -5.82820 | 132.83282 | 2214 ft | 184 kts | 315° |
| 2026-04-25 01:34 | -5.81950 | 132.82350 | 1819 ft | 183 kts | 315° |
| 2026-04-25 01:34 | -5.81078 | 132.81411 | 1569 ft | 181 kts | 315° |
| 2026-04-25 01:34 | -5.80239 | 132.80510 | 1373 ft | 176 kts | 315° |
| 2026-04-25 01:35 | -5.79423 | 132.79637 | 1010 ft | 161 kts | 315° |
| 2026-04-25 01:35 | -5.78689 | 132.78847 | 772 ft | 154 kts | 315° |
| 2026-04-25 01:35 | -5.77972 | 132.78072 | 572 ft | 150 kts | 314° |
| 2026-04-25 01:35 | -5.77256 | 132.77295 | 372 ft | 151 kts | 315° |
| 2026-04-25 01:36 | -5.76546 | 132.76542 | 155 ft | 146 kts | 315° |
| 2026-04-25 01:36 | -5.75917 | 132.75884 | 112 ft | 103 kts | 313° |
| 2026-04-25 01:36 | -5.75656 | 132.75606 | 110 ft | 15 kts | 313° |
| 2026-04-25 01:36 | -5.75628 | 132.75561 | 113 ft | 0 kts | 280° |
| 2026-04-25 01:37 | -5.75619 | 132.75553 | 113 ft | 2 kts | 336° |
| 2026-04-25 01:37 | -5.75606 | 132.75562 | 114 ft | 2 kts | 58° |
| 2026-04-25 01:37 | -5.75614 | 132.75586 | 114 ft | 3 kts | 133° |
| 2026-04-25 01:37 | -5.75656 | 132.75610 | 112 ft | 12 kts | 146° |
| 2026-04-25 01:38 | -5.75717 | 132.75671 | 114 ft | 12 kts | 134° |
| 2026-04-25 01:38 | -5.75776 | 132.75732 | 113 ft | 12 kts | 133° |
| 2026-04-25 01:38 | -5.75834 | 132.75795 | 114 ft | 13 kts | 133° |
| 2026-04-25 01:38 | -5.75880 | 132.75850 | 113 ft | 2 kts | 102° |
| 2026-04-25 01:39 | -5.75856 | 132.75891 | 112 ft | 10 kts | 46° |
| 2026-04-25 01:39 | -5.75802 | 132.75943 | 111 ft | 11 kts | 43° |
| 2026-04-25 01:39 | -5.75748 | 132.75973 | 108 ft | 6 kts | 356° |
| 2026-04-25 01:39 | -5.75727 | 132.75962 | 110 ft | 0 kts | 317° |
| 2026-04-25 01:40 | -5.75724 | 132.75960 | 110 ft | 1 kts | 318° |
| 2026-04-25 01:40 | -5.75718 | 132.75954 | 109 ft | 1 kts | 318° |
| 2026-04-25 01:40 | -5.75709 | 132.75946 | 110 ft | 2 kts | 317° |
| 2026-04-25 01:40 | -5.75699 | 132.75937 | 110 ft | 2 kts | 317° |
| 2026-04-25 01:41 | -5.75685 | 132.75930 | 110 ft | 2 kts | 355° |
| 2026-04-25 01:41 | -5.75676 | 132.75938 | 110 ft | 0 kts | 43° |
| 2026-04-25 01:41 | -5.75675 | 132.75938 | 110 ft | 0 kts | 43° |